sensor_id;sensor_type;location;lat;lon;timestamp;P1;durP1;ratioP1;P2;durP2;ratioP2
29402;SDS011;16382;59.942;30.472;2022-12-18T00:01:23;16.48;;;8.23;;
29402;SDS011;16382;59.942;30.472;2022-12-18T00:03:52;17.00;;;7.55;;
29402;SDS011;16382;59.942;30.472;2022-12-18T00:06:23;15.70;;;8.05;;
29402;SDS011;16382;59.942;30.472;2022-12-18T00:08:52;14.27;;;7.93;;
29402;SDS011;16382;59.942;30.472;2022-12-18T00:11:23;14.68;;;7.70;;
29402;SDS011;16382;59.942;30.472;2022-12-18T00:13:53;14.77;;;7.03;;
29402;SDS011;16382;59.942;30.472;2022-12-18T00:16:23;13.95;;;7.03;;
29402;SDS011;16382;59.942;30.472;2022-12-18T00:18:54;14.93;;;7.57;;
29402;SDS011;16382;59.942;30.472;2022-12-18T00:21:26;16.70;;;7.63;;
29402;SDS011;16382;59.942;30.472;2022-12-18T00:23:55;15.95;;;8.30;;
29402;SDS011;16382;59.942;30.472;2022-12-18T00:26:26;13.10;;;7.90;;
29402;SDS011;16382;59.942;30.472;2022-12-18T00:28:59;15.27;;;7.55;;
29402;SDS011;16382;59.942;30.472;2022-12-18T00:31:30;12.18;;;6.72;;
29402;SDS011;16382;59.942;30.472;2022-12-18T00:34:00;15.00;;;7.68;;
29402;SDS011;16382;59.942;30.472;2022-12-18T00:36:28;16.90;;;8.50;;
29402;SDS011;16382;59.942;30.472;2022-12-18T00:38:59;17.35;;;8.63;;
29402;SDS011;16382;59.942;30.472;2022-12-18T00:41:30;15.05;;;7.95;;
29402;SDS011;16382;59.942;30.472;2022-12-18T00:44:16;12.70;;;7.68;;
29402;SDS011;16382;59.942;30.472;2022-12-18T00:46:44;12.15;;;7.68;;
29402;SDS011;16382;59.942;30.472;2022-12-18T00:49:14;13.63;;;7.97;;
29402;SDS011;16382;59.942;30.472;2022-12-18T00:51:43;14.93;;;8.43;;
29402;SDS011;16382;59.942;30.472;2022-12-18T00:54:10;14.15;;;7.47;;
29402;SDS011;16382;59.942;30.472;2022-12-18T00:56:40;14.85;;;8.07;;
29402;SDS011;16382;59.942;30.472;2022-12-18T00:59:07;15.35;;;7.63;;
29402;SDS011;16382;59.942;30.472;2022-12-18T01:01:37;11.55;;;6.50;;
29402;SDS011;16382;59.942;30.472;2022-12-18T01:04:05;10.80;;;6.30;;
29402;SDS011;16382;59.942;30.472;2022-12-18T01:06:32;10.63;;;6.20;;
29402;SDS011;16382;59.942;30.472;2022-12-18T01:09:00;11.90;;;7.03;;
29402;SDS011;16382;59.942;30.472;2022-12-18T01:11:28;11.30;;;6.70;;
29402;SDS011;16382;59.942;30.472;2022-12-18T01:13:58;12.57;;;6.72;;
29402;SDS011;16382;59.942;30.472;2022-12-18T01:16:25;10.98;;;6.25;;
29402;SDS011;16382;59.942;30.472;2022-12-18T01:18:53;11.63;;;6.90;;
29402;SDS011;16382;59.942;30.472;2022-12-18T01:21:21;12.68;;;7.50;;
29402;SDS011;16382;59.942;30.472;2022-12-18T01:23:53;13.90;;;7.93;;
29402;SDS011;16382;59.942;30.472;2022-12-18T01:26:23;13.65;;;7.25;;
29402;SDS011;16382;59.942;30.472;2022-12-18T01:28:53;9.98;;;6.35;;
29402;SDS011;16382;59.942;30.472;2022-12-18T01:31:24;12.57;;;7.45;;
29402;SDS011;16382;59.942;30.472;2022-12-18T01:33:54;11.93;;;7.30;;
29402;SDS011;16382;59.942;30.472;2022-12-18T01:36:23;10.38;;;6.85;;
29402;SDS011;16382;59.942;30.472;2022-12-18T01:38:53;13.32;;;7.20;;
29402;SDS011;16382;59.942;30.472;2022-12-18T01:41:22;13.52;;;7.85;;
29402;SDS011;16382;59.942;30.472;2022-12-18T01:43:52;13.10;;;7.20;;
29402;SDS011;16382;59.942;30.472;2022-12-18T01:46:24;12.93;;;7.07;;
29402;SDS011;16382;59.942;30.472;2022-12-18T01:48:55;13.10;;;7.22;;
29402;SDS011;16382;59.942;30.472;2022-12-18T01:51:26;18.45;;;8.27;;
29402;SDS011;16382;59.942;30.472;2022-12-18T01:53:56;13.05;;;7.05;;
29402;SDS011;16382;59.942;30.472;2022-12-18T01:56:25;13.52;;;7.97;;
29402;SDS011;16382;59.942;30.472;2022-12-18T01:58:54;12.63;;;8.20;;
29402;SDS011;16382;59.942;30.472;2022-12-18T02:06:46;14.25;;;8.00;;
29402;SDS011;16382;59.942;30.472;2022-12-18T02:09:20;13.98;;;8.57;;
29402;SDS011;16382;59.942;30.472;2022-12-18T02:11:56;16.75;;;8.43;;
29402;SDS011;16382;59.942;30.472;2022-12-18T02:14:32;20.30;;;9.80;;
29402;SDS011;16382;59.942;30.472;2022-12-18T02:17:09;17.13;;;8.65;;
29402;SDS011;16382;59.942;30.472;2022-12-18T02:19:45;18.48;;;9.45;;
29402;SDS011;16382;59.942;30.472;2022-12-18T02:22:26;18.23;;;9.60;;
29402;SDS011;16382;59.942;30.472;2022-12-18T02:25:07;18.55;;;8.95;;
29402;SDS011;16382;59.942;30.472;2022-12-18T02:27:49;16.20;;;8.70;;
29402;SDS011;16382;59.942;30.472;2022-12-18T02:30:19;13.02;;;7.82;;
29402;SDS011;16382;59.942;30.472;2022-12-18T02:32:49;15.38;;;7.88;;
29402;SDS011;16382;59.942;30.472;2022-12-18T02:35:20;14.15;;;8.32;;
29402;SDS011;16382;59.942;30.472;2022-12-18T02:37:53;14.70;;;7.05;;
29402;SDS011;16382;59.942;30.472;2022-12-18T02:40:22;12.25;;;7.22;;
29402;SDS011;16382;59.942;30.472;2022-12-18T02:42:54;13.52;;;6.93;;
29402;SDS011;16382;59.942;30.472;2022-12-18T02:45:23;12.93;;;7.20;;
29402;SDS011;16382;59.942;30.472;2022-12-18T02:47:51;13.90;;;7.22;;
29402;SDS011;16382;59.942;30.472;2022-12-18T02:50:20;11.65;;;7.00;;
29402;SDS011;16382;59.942;30.472;2022-12-18T02:53:01;12.43;;;6.68;;
29402;SDS011;16382;59.942;30.472;2022-12-18T02:55:44;17.10;;;7.03;;
29402;SDS011;16382;59.942;30.472;2022-12-18T02:58:29;14.45;;;6.85;;
29402;SDS011;16382;59.942;30.472;2022-12-18T03:01:13;15.77;;;7.53;;
29402;SDS011;16382;59.942;30.472;2022-12-18T03:03:50;14.75;;;8.57;;
29402;SDS011;16382;59.942;30.472;2022-12-18T03:06:24;12.77;;;7.50;;
29402;SDS011;16382;59.942;30.472;2022-12-18T03:11:28;10.70;;;6.70;;
29402;SDS011;16382;59.942;30.472;2022-12-18T03:14:20;12.95;;;7.10;;
29402;SDS011;16382;59.942;30.472;2022-12-18T03:16:50;15.00;;;7.78;;
29402;SDS011;16382;59.942;30.472;2022-12-18T03:19:22;13.23;;;7.40;;
29402;SDS011;16382;59.942;30.472;2022-12-18T03:21:58;15.18;;;8.30;;
29402;SDS011;16382;59.942;30.472;2022-12-18T03:24:38;15.45;;;8.52;;
29402;SDS011;16382;59.942;30.472;2022-12-18T03:27:07;16.13;;;8.57;;
29402;SDS011;16382;59.942;30.472;2022-12-18T03:29:42;17.60;;;8.77;;
29402;SDS011;16382;59.942;30.472;2022-12-18T03:32:21;15.77;;;9.20;;
29402;SDS011;16382;59.942;30.472;2022-12-18T03:34:55;17.05;;;9.57;;
29402;SDS011;16382;59.942;30.472;2022-12-18T03:37:32;15.80;;;8.98;;
29402;SDS011;16382;59.942;30.472;2022-12-18T03:40:01;17.92;;;9.38;;
29402;SDS011;16382;59.942;30.472;2022-12-18T03:42:33;13.57;;;8.70;;
29402;SDS011;16382;59.942;30.472;2022-12-18T03:45:13;16.83;;;9.32;;
29402;SDS011;16382;59.942;30.472;2022-12-18T03:47:48;20.35;;;9.40;;
29402;SDS011;16382;59.942;30.472;2022-12-18T03:50:27;14.40;;;7.68;;
29402;SDS011;16382;59.942;30.472;2022-12-18T03:53:08;15.57;;;9.70;;
29402;SDS011;16382;59.942;30.472;2022-12-18T03:55:48;14.73;;;8.05;;
29402;SDS011;16382;59.942;30.472;2022-12-18T03:58:18;16.02;;;9.25;;
29402;SDS011;16382;59.942;30.472;2022-12-18T04:00:58;13.77;;;8.40;;
29402;SDS011;16382;59.942;30.472;2022-12-18T04:03:30;16.98;;;9.75;;
29402;SDS011;16382;59.942;30.472;2022-12-18T04:05:58;18.42;;;9.68;;
29402;SDS011;16382;59.942;30.472;2022-12-18T04:08:28;17.27;;;10.02;;
29402;SDS011;16382;59.942;30.472;2022-12-18T04:11:03;17.92;;;10.27;;
29402;SDS011;16382;59.942;30.472;2022-12-18T04:13:33;22.50;;;11.38;;
29402;SDS011;16382;59.942;30.472;2022-12-18T04:16:08;19.85;;;10.93;;
29402;SDS011;16382;59.942;30.472;2022-12-18T04:18:39;21.38;;;10.45;;
29402;SDS011;16382;59.942;30.472;2022-12-18T04:21:08;18.10;;;10.68;;
29402;SDS011;16382;59.942;30.472;2022-12-18T04:23:37;19.10;;;11.05;;
29402;SDS011;16382;59.942;30.472;2022-12-18T04:26:05;22.25;;;12.35;;
29402;SDS011;16382;59.942;30.472;2022-12-18T04:31:17;20.20;;;10.30;;
29402;SDS011;16382;59.942;30.472;2022-12-18T04:33:46;21.85;;;10.85;;
29402;SDS011;16382;59.942;30.472;2022-12-18T04:36:14;24.30;;;12.57;;
29402;SDS011;16382;59.942;30.472;2022-12-18T04:38:43;23.20;;;13.10;;
29402;SDS011;16382;59.942;30.472;2022-12-18T04:41:14;22.25;;;14.00;;
29402;SDS011;16382;59.942;30.472;2022-12-18T04:43:44;33.25;;;15.55;;
29402;SDS011;16382;59.942;30.472;2022-12-18T04:46:12;31.50;;;15.35;;
29402;SDS011;16382;59.942;30.472;2022-12-18T04:48:41;33.85;;;15.80;;
29402;SDS011;16382;59.942;30.472;2022-12-18T04:51:08;29.52;;;16.58;;
29402;SDS011;16382;59.942;30.472;2022-12-18T04:53:38;29.17;;;14.98;;
29402;SDS011;16382;59.942;30.472;2022-12-18T04:56:06;39.38;;;18.08;;
29402;SDS011;16382;59.942;30.472;2022-12-18T04:58:37;30.50;;;16.02;;
29402;SDS011;16382;59.942;30.472;2022-12-18T05:01:06;32.55;;;16.52;;
29402;SDS011;16382;59.942;30.472;2022-12-18T05:03:35;31.75;;;17.27;;
29402;SDS011;16382;59.942;30.472;2022-12-18T05:06:05;35.63;;;17.95;;
29402;SDS011;16382;59.942;30.472;2022-12-18T05:08:33;33.90;;;16.42;;
29402;SDS011;16382;59.942;30.472;2022-12-18T05:11:01;34.85;;;17.35;;
29402;SDS011;16382;59.942;30.472;2022-12-18T05:13:31;33.90;;;17.55;;
29402;SDS011;16382;59.942;30.472;2022-12-18T05:16:00;36.85;;;18.27;;
29402;SDS011;16382;59.942;30.472;2022-12-18T05:18:28;34.88;;;18.13;;
29402;SDS011;16382;59.942;30.472;2022-12-18T05:20:56;35.97;;;19.42;;
29402;SDS011;16382;59.942;30.472;2022-12-18T05:23:25;30.13;;;16.25;;
29402;SDS011;16382;59.942;30.472;2022-12-18T05:25:54;30.67;;;15.65;;
29402;SDS011;16382;59.942;30.472;2022-12-18T05:28:23;36.50;;;18.23;;
29402;SDS011;16382;59.942;30.472;2022-12-18T05:30:53;34.80;;;16.63;;
29402;SDS011;16382;59.942;30.472;2022-12-18T05:33:23;31.20;;;16.70;;
29402;SDS011;16382;59.942;30.472;2022-12-18T05:35:53;31.98;;;17.63;;
29402;SDS011;16382;59.942;30.472;2022-12-18T05:38:23;34.80;;;17.80;;
29402;SDS011;16382;59.942;30.472;2022-12-18T05:40:53;29.67;;;17.15;;
29402;SDS011;16382;59.942;30.472;2022-12-18T05:43:22;35.45;;;17.80;;
29402;SDS011;16382;59.942;30.472;2022-12-18T05:45:51;34.13;;;16.98;;
29402;SDS011;16382;59.942;30.472;2022-12-18T05:48:19;34.03;;;18.25;;
29402;SDS011;16382;59.942;30.472;2022-12-18T05:50:48;33.58;;;16.40;;
29402;SDS011;16382;59.942;30.472;2022-12-18T05:53:17;33.10;;;17.65;;
29402;SDS011;16382;59.942;30.472;2022-12-18T05:55:48;37.28;;;20.67;;
29402;SDS011;16382;59.942;30.472;2022-12-18T05:58:15;40.05;;;21.20;;
29402;SDS011;16382;59.942;30.472;2022-12-18T06:00:44;35.72;;;18.30;;
29402;SDS011;16382;59.942;30.472;2022-12-18T06:03:13;35.50;;;17.10;;
29402;SDS011;16382;59.942;30.472;2022-12-18T06:05:43;39.28;;;18.38;;
29402;SDS011;16382;59.942;30.472;2022-12-18T06:08:11;33.85;;;17.30;;
29402;SDS011;16382;59.942;30.472;2022-12-18T06:10:40;32.55;;;17.00;;
29402;SDS011;16382;59.942;30.472;2022-12-18T06:13:12;32.97;;;15.82;;
29402;SDS011;16382;59.942;30.472;2022-12-18T06:15:40;34.88;;;18.35;;
29402;SDS011;16382;59.942;30.472;2022-12-18T06:18:08;34.72;;;17.48;;
29402;SDS011;16382;59.942;30.472;2022-12-18T06:20:36;31.88;;;17.52;;
29402;SDS011;16382;59.942;30.472;2022-12-18T06:23:05;35.53;;;17.92;;
29402;SDS011;16382;59.942;30.472;2022-12-18T06:25:36;38.03;;;20.00;;
29402;SDS011;16382;59.942;30.472;2022-12-18T06:28:05;34.10;;;17.38;;
29402;SDS011;16382;59.942;30.472;2022-12-18T06:30:33;37.55;;;19.65;;
29402;SDS011;16382;59.942;30.472;2022-12-18T06:33:01;39.42;;;18.95;;
29402;SDS011;16382;59.942;30.472;2022-12-18T06:35:29;41.00;;;20.92;;
29402;SDS011;16382;59.942;30.472;2022-12-18T06:37:58;34.53;;;16.90;;
29402;SDS011;16382;59.942;30.472;2022-12-18T06:40:27;35.45;;;18.25;;
29402;SDS011;16382;59.942;30.472;2022-12-18T06:42:55;33.25;;;17.77;;
29402;SDS011;16382;59.942;30.472;2022-12-18T06:45:24;35.65;;;18.83;;
29402;SDS011;16382;59.942;30.472;2022-12-18T06:47:53;31.05;;;16.65;;
29402;SDS011;16382;59.942;30.472;2022-12-18T06:50:20;35.15;;;18.13;;
29402;SDS011;16382;59.942;30.472;2022-12-18T06:52:48;33.58;;;17.23;;
29402;SDS011;16382;59.942;30.472;2022-12-18T06:55:16;33.60;;;15.90;;
29402;SDS011;16382;59.942;30.472;2022-12-18T06:57:44;28.67;;;15.75;;
29402;SDS011;16382;59.942;30.472;2022-12-18T07:00:12;31.98;;;15.90;;
29402;SDS011;16382;59.942;30.472;2022-12-18T07:02:41;29.45;;;15.32;;
29402;SDS011;16382;59.942;30.472;2022-12-18T07:05:10;26.77;;;13.00;;
29402;SDS011;16382;59.942;30.472;2022-12-18T07:07:37;28.65;;;14.55;;
29402;SDS011;16382;59.942;30.472;2022-12-18T07:10:05;25.90;;;13.38;;
29402;SDS011;16382;59.942;30.472;2022-12-18T07:12:34;25.45;;;13.10;;
29402;SDS011;16382;59.942;30.472;2022-12-18T07:15:02;19.95;;;10.30;;
29402;SDS011;16382;59.942;30.472;2022-12-18T07:17:30;21.75;;;12.13;;
29402;SDS011;16382;59.942;30.472;2022-12-18T07:19:58;27.05;;;11.48;;
29402;SDS011;16382;59.942;30.472;2022-12-18T07:22:27;53.80;;;23.05;;
29402;SDS011;16382;59.942;30.472;2022-12-18T07:24:55;75.15;;;28.80;;
29402;SDS011;16382;59.942;30.472;2022-12-18T07:27:23;26.25;;;12.98;;
29402;SDS011;16382;59.942;30.472;2022-12-18T07:29:50;26.50;;;13.30;;
29402;SDS011;16382;59.942;30.472;2022-12-18T07:32:19;32.38;;;14.88;;
29402;SDS011;16382;59.942;30.472;2022-12-18T07:34:49;30.90;;;15.00;;
29402;SDS011;16382;59.942;30.472;2022-12-18T07:37:18;33.53;;;15.65;;
29402;SDS011;16382;59.942;30.472;2022-12-18T07:39:48;33.33;;;15.00;;
29402;SDS011;16382;59.942;30.472;2022-12-18T07:42:19;33.90;;;16.15;;
29402;SDS011;16382;59.942;30.472;2022-12-18T07:44:57;39.78;;;14.38;;
29402;SDS011;16382;59.942;30.472;2022-12-18T07:47:31;34.03;;;15.07;;
29402;SDS011;16382;59.942;30.472;2022-12-18T07:50:02;28.38;;;14.25;;
29402;SDS011;16382;59.942;30.472;2022-12-18T07:52:31;39.97;;;15.77;;
29402;SDS011;16382;59.942;30.472;2022-12-18T07:55:00;38.03;;;16.20;;
29402;SDS011;16382;59.942;30.472;2022-12-18T07:57:34;35.83;;;15.43;;
29402;SDS011;16382;59.942;30.472;2022-12-18T08:00:03;35.55;;;15.45;;
29402;SDS011;16382;59.942;30.472;2022-12-18T08:02:38;32.33;;;16.27;;
29402;SDS011;16382;59.942;30.472;2022-12-18T08:05:05;35.15;;;15.90;;
29402;SDS011;16382;59.942;30.472;2022-12-18T08:07:33;36.92;;;15.63;;
29402;SDS011;16382;59.942;30.472;2022-12-18T08:10:06;37.10;;;16.60;;
29402;SDS011;16382;59.942;30.472;2022-12-18T08:12:35;38.72;;;16.95;;
29402;SDS011;16382;59.942;30.472;2022-12-18T08:15:02;36.80;;;18.30;;
29402;SDS011;16382;59.942;30.472;2022-12-18T08:17:31;40.33;;;18.80;;
29402;SDS011;16382;59.942;30.472;2022-12-18T08:19:58;46.15;;;21.50;;
29402;SDS011;16382;59.942;30.472;2022-12-18T08:22:27;52.53;;;22.38;;
29402;SDS011;16382;59.942;30.472;2022-12-18T08:24:54;53.88;;;23.73;;
29402;SDS011;16382;59.942;30.472;2022-12-18T08:27:23;53.30;;;23.40;;
29402;SDS011;16382;59.942;30.472;2022-12-18T08:29:51;52.55;;;23.80;;
29402;SDS011;16382;59.942;30.472;2022-12-18T08:32:19;59.97;;;24.27;;
29402;SDS011;16382;59.942;30.472;2022-12-18T08:34:48;58.60;;;24.35;;
29402;SDS011;16382;59.942;30.472;2022-12-18T08:37:15;56.25;;;25.98;;
29402;SDS011;16382;59.942;30.472;2022-12-18T08:39:43;61.25;;;26.13;;
29402;SDS011;16382;59.942;30.472;2022-12-18T08:42:11;60.35;;;26.42;;
29402;SDS011;16382;59.942;30.472;2022-12-18T08:44:57;58.15;;;23.80;;
29402;SDS011;16382;59.942;30.472;2022-12-18T08:47:29;56.03;;;24.23;;
29402;SDS011;16382;59.942;30.472;2022-12-18T08:50:11;61.35;;;25.30;;
29402;SDS011;16382;59.942;30.472;2022-12-18T08:52:40;52.92;;;23.17;;
29402;SDS011;16382;59.942;30.472;2022-12-18T08:55:08;58.38;;;23.45;;
29402;SDS011;16382;59.942;30.472;2022-12-18T08:57:36;53.42;;;22.55;;
29402;SDS011;16382;59.942;30.472;2022-12-18T09:00:06;52.75;;;24.48;;
29402;SDS011;16382;59.942;30.472;2022-12-18T09:02:38;55.50;;;24.23;;
29402;SDS011;16382;59.942;30.472;2022-12-18T09:05:09;49.85;;;21.20;;
29402;SDS011;16382;59.942;30.472;2022-12-18T09:07:36;48.83;;;21.38;;
29402;SDS011;16382;59.942;30.472;2022-12-18T09:10:04;46.13;;;20.55;;
29402;SDS011;16382;59.942;30.472;2022-12-18T09:12:33;44.70;;;21.45;;
29402;SDS011;16382;59.942;30.472;2022-12-18T09:15:00;38.92;;;19.15;;
29402;SDS011;16382;59.942;30.472;2022-12-18T09:17:30;45.85;;;18.13;;
29402;SDS011;16382;59.942;30.472;2022-12-18T09:19:58;37.03;;;16.42;;
29402;SDS011;16382;59.942;30.472;2022-12-18T09:22:25;37.25;;;15.73;;
29402;SDS011;16382;59.942;30.472;2022-12-18T09:24:53;32.33;;;15.77;;
29402;SDS011;16382;59.942;30.472;2022-12-18T09:27:20;32.28;;;14.82;;
29402;SDS011;16382;59.942;30.472;2022-12-18T09:29:48;34.10;;;15.35;;
29402;SDS011;16382;59.942;30.472;2022-12-18T09:32:16;32.00;;;15.38;;
29402;SDS011;16382;59.942;30.472;2022-12-18T09:34:45;30.77;;;14.07;;
29402;SDS011;16382;59.942;30.472;2022-12-18T09:37:13;31.85;;;14.75;;
29402;SDS011;16382;59.942;30.472;2022-12-18T09:39:41;32.97;;;14.50;;
29402;SDS011;16382;59.942;30.472;2022-12-18T09:42:09;29.42;;;14.23;;
29402;SDS011;16382;59.942;30.472;2022-12-18T09:44:48;26.45;;;13.18;;
29402;SDS011;16382;59.942;30.472;2022-12-18T09:47:20;29.10;;;13.43;;
29402;SDS011;16382;59.942;30.472;2022-12-18T09:49:53;27.08;;;13.43;;
29402;SDS011;16382;59.942;30.472;2022-12-18T09:52:26;24.52;;;12.27;;
29402;SDS011;16382;59.942;30.472;2022-12-18T09:54:59;28.10;;;11.90;;
29402;SDS011;16382;59.942;30.472;2022-12-18T09:57:33;28.73;;;12.70;;
29402;SDS011;16382;59.942;30.472;2022-12-18T10:00:15;29.05;;;13.68;;
29402;SDS011;16382;59.942;30.472;2022-12-18T10:02:49;31.33;;;13.43;;
29402;SDS011;16382;59.942;30.472;2022-12-18T10:05:21;26.65;;;12.88;;
29402;SDS011;16382;59.942;30.472;2022-12-18T10:08:02;25.60;;;11.60;;
29402;SDS011;16382;59.942;30.472;2022-12-18T10:10:39;26.48;;;12.13;;
29402;SDS011;16382;59.942;30.472;2022-12-18T10:13:15;26.15;;;11.85;;
29402;SDS011;16382;59.942;30.472;2022-12-18T10:16:08;19.45;;;9.55;;
29402;SDS011;16382;59.942;30.472;2022-12-18T10:18:49;19.83;;;9.23;;
29402;SDS011;16382;59.942;30.472;2022-12-18T10:21:38;20.08;;;10.25;;
29402;SDS011;16382;59.942;30.472;2022-12-18T10:24:15;23.02;;;11.35;;
29402;SDS011;16382;59.942;30.472;2022-12-18T10:26:49;24.75;;;11.23;;
29402;SDS011;16382;59.942;30.472;2022-12-18T10:29:22;21.05;;;11.52;;
29402;SDS011;16382;59.942;30.472;2022-12-18T10:31:52;24.70;;;10.73;;
29402;SDS011;16382;59.942;30.472;2022-12-18T10:34:19;22.55;;;10.75;;
29402;SDS011;16382;59.942;30.472;2022-12-18T10:36:49;23.80;;;10.95;;
29402;SDS011;16382;59.942;30.472;2022-12-18T10:39:20;22.23;;;10.43;;
29402;SDS011;16382;59.942;30.472;2022-12-18T10:41:51;20.52;;;10.32;;
29402;SDS011;16382;59.942;30.472;2022-12-18T10:44:38;19.95;;;9.85;;
29402;SDS011;16382;59.942;30.472;2022-12-18T10:47:06;20.65;;;9.05;;
29402;SDS011;16382;59.942;30.472;2022-12-18T10:49:46;20.05;;;9.65;;
29402;SDS011;16382;59.942;30.472;2022-12-18T10:52:25;19.02;;;8.55;;
29402;SDS011;16382;59.942;30.472;2022-12-18T10:55:19;15.75;;;7.57;;
29402;SDS011;16382;59.942;30.472;2022-12-18T10:57:47;19.17;;;9.45;;
29402;SDS011;16382;59.942;30.472;2022-12-18T11:00:21;21.02;;;9.90;;
29402;SDS011;16382;59.942;30.472;2022-12-18T11:02:53;73.00;;;29.70;;
29402;SDS011;16382;59.942;30.472;2022-12-18T11:05:26;18.85;;;9.38;;
29402;SDS011;16382;59.942;30.472;2022-12-18T11:07:59;17.50;;;8.45;;
29402;SDS011;16382;59.942;30.472;2022-12-18T11:10:28;19.85;;;8.55;;
29402;SDS011;16382;59.942;30.472;2022-12-18T11:13:09;17.42;;;7.55;;
29402;SDS011;16382;59.942;30.472;2022-12-18T11:15:39;20.33;;;8.48;;
29402;SDS011;16382;59.942;30.472;2022-12-18T11:18:14;18.25;;;9.25;;
29402;SDS011;16382;59.942;30.472;2022-12-18T11:20:50;19.92;;;9.10;;
29402;SDS011;16382;59.942;30.472;2022-12-18T11:23:22;18.48;;;7.90;;
29402;SDS011;16382;59.942;30.472;2022-12-18T11:25:51;17.40;;;8.20;;
29402;SDS011;16382;59.942;30.472;2022-12-18T11:28:26;17.33;;;9.48;;
29402;SDS011;16382;59.942;30.472;2022-12-18T11:31:11;19.92;;;8.65;;
29402;SDS011;16382;59.942;30.472;2022-12-18T11:33:53;25.50;;;8.70;;
29402;SDS011;16382;59.942;30.472;2022-12-18T11:36:31;20.20;;;9.52;;
29402;SDS011;16382;59.942;30.472;2022-12-18T11:39:11;17.52;;;8.73;;
29402;SDS011;16382;59.942;30.472;2022-12-18T11:41:46;20.35;;;8.50;;
29402;SDS011;16382;59.942;30.472;2022-12-18T11:44:40;17.73;;;8.23;;
29402;SDS011;16382;59.942;30.472;2022-12-18T11:47:15;19.70;;;8.75;;
29402;SDS011;16382;59.942;30.472;2022-12-18T11:49:53;21.48;;;10.05;;
29402;SDS011;16382;59.942;30.472;2022-12-18T11:52:31;21.30;;;9.45;;
29402;SDS011;16382;59.942;30.472;2022-12-18T11:55:09;23.33;;;9.75;;
29402;SDS011;16382;59.942;30.472;2022-12-18T11:57:42;19.50;;;9.77;;
29402;SDS011;16382;59.942;30.472;2022-12-18T12:00:21;21.15;;;9.98;;
29402;SDS011;16382;59.942;30.472;2022-12-18T12:03:05;22.65;;;9.27;;
29402;SDS011;16382;59.942;30.472;2022-12-18T12:06:10;19.25;;;8.55;;
29402;SDS011;16382;59.942;30.472;2022-12-18T12:08:57;22.48;;;9.27;;
29402;SDS011;16382;59.942;30.472;2022-12-18T12:11:39;21.63;;;9.40;;
29402;SDS011;16382;59.942;30.472;2022-12-18T12:14:33;22.83;;;9.52;;
29402;SDS011;16382;59.942;30.472;2022-12-18T12:17:13;24.73;;;11.23;;
29402;SDS011;16382;59.942;30.472;2022-12-18T12:19:52;24.02;;;9.77;;
29402;SDS011;16382;59.942;30.472;2022-12-18T12:22:27;23.88;;;10.38;;
29402;SDS011;16382;59.942;30.472;2022-12-18T12:28:05;28.48;;;10.43;;
29402;SDS011;16382;59.942;30.472;2022-12-18T12:30:51;31.85;;;11.85;;
29402;SDS011;16382;59.942;30.472;2022-12-18T12:33:33;26.02;;;10.80;;
29402;SDS011;16382;59.942;30.472;2022-12-18T12:36:12;25.88;;;11.40;;
29402;SDS011;16382;59.942;30.472;2022-12-18T12:38:53;26.88;;;10.88;;
29402;SDS011;16382;59.942;30.472;2022-12-18T12:41:25;28.35;;;10.95;;
29402;SDS011;16382;59.942;30.472;2022-12-18T12:44:21;24.77;;;11.35;;
29402;SDS011;16382;59.942;30.472;2022-12-18T12:46:55;22.05;;;10.05;;
29402;SDS011;16382;59.942;30.472;2022-12-18T12:49:26;23.63;;;10.52;;
29402;SDS011;16382;59.942;30.472;2022-12-18T12:52:03;28.30;;;11.57;;
29402;SDS011;16382;59.942;30.472;2022-12-18T12:54:36;29.08;;;11.48;;
29402;SDS011;16382;59.942;30.472;2022-12-18T12:57:05;29.08;;;12.00;;
29402;SDS011;16382;59.942;30.472;2022-12-18T12:59:41;28.40;;;12.13;;
29402;SDS011;16382;59.942;30.472;2022-12-18T13:02:20;25.48;;;11.15;;
29402;SDS011;16382;59.942;30.472;2022-12-18T13:04:57;29.50;;;12.18;;
29402;SDS011;16382;59.942;30.472;2022-12-18T13:07:31;26.13;;;11.27;;
29402;SDS011;16382;59.942;30.472;2022-12-18T13:10:13;26.85;;;11.00;;
29402;SDS011;16382;59.942;30.472;2022-12-18T13:12:53;24.80;;;11.05;;
29402;SDS011;16382;59.942;30.472;2022-12-18T13:15:27;29.55;;;13.23;;
29402;SDS011;16382;59.942;30.472;2022-12-18T13:18:04;25.17;;;10.88;;
29402;SDS011;16382;59.942;30.472;2022-12-18T13:20:40;25.48;;;12.15;;
29402;SDS011;16382;59.942;30.472;2022-12-18T13:23:25;23.65;;;10.63;;
29402;SDS011;16382;59.942;30.472;2022-12-18T13:29:00;26.38;;;11.30;;
29402;SDS011;16382;59.942;30.472;2022-12-18T13:38:20;23.90;;;10.27;;
29402;SDS011;16382;59.942;30.472;2022-12-18T13:40:56;23.90;;;10.38;;
29402;SDS011;16382;59.942;30.472;2022-12-18T13:46:26;21.40;;;11.77;;
29402;SDS011;16382;59.942;30.472;2022-12-18T13:49:01;21.95;;;9.65;;
29402;SDS011;16382;59.942;30.472;2022-12-18T13:51:32;24.38;;;11.02;;
29402;SDS011;16382;59.942;30.472;2022-12-18T13:54:02;21.13;;;9.00;;
29402;SDS011;16382;59.942;30.472;2022-12-18T13:59:15;24.77;;;9.52;;
29402;SDS011;16382;59.942;30.472;2022-12-18T14:01:50;18.70;;;8.77;;
29402;SDS011;16382;59.942;30.472;2022-12-18T14:04:24;23.20;;;9.52;;
29402;SDS011;16382;59.942;30.472;2022-12-18T14:06:55;23.10;;;9.15;;
29402;SDS011;16382;59.942;30.472;2022-12-18T14:09:28;22.10;;;8.38;;
29402;SDS011;16382;59.942;30.472;2022-12-18T14:12:01;24.33;;;8.57;;
29402;SDS011;16382;59.942;30.472;2022-12-18T14:14:47;20.50;;;9.15;;
29402;SDS011;16382;59.942;30.472;2022-12-18T14:17:18;23.60;;;9.88;;
29402;SDS011;16382;59.942;30.472;2022-12-18T14:19:48;20.45;;;7.88;;
29402;SDS011;16382;59.942;30.472;2022-12-18T14:22:18;24.98;;;10.02;;
29402;SDS011;16382;59.942;30.472;2022-12-18T14:24:51;17.80;;;8.80;;
29402;SDS011;16382;59.942;30.472;2022-12-18T14:27:42;17.75;;;8.45;;
29402;SDS011;16382;59.942;30.472;2022-12-18T14:33:02;21.42;;;9.88;;
29402;SDS011;16382;59.942;30.472;2022-12-18T14:35:37;23.38;;;9.27;;
29402;SDS011;16382;59.942;30.472;2022-12-18T14:38:21;19.73;;;9.07;;
29402;SDS011;16382;59.942;30.472;2022-12-18T14:40:56;19.95;;;9.02;;
29402;SDS011;16382;59.942;30.472;2022-12-18T14:43:25;20.63;;;10.00;;
29402;SDS011;16382;59.942;30.472;2022-12-18T14:45:54;18.60;;;8.18;;
29402;SDS011;16382;59.942;30.472;2022-12-18T14:48:25;19.13;;;8.82;;
29402;SDS011;16382;59.942;30.472;2022-12-18T14:51:14;18.25;;;9.45;;
29402;SDS011;16382;59.942;30.472;2022-12-18T14:53:47;17.65;;;9.50;;
29402;SDS011;16382;59.942;30.472;2022-12-18T14:56:25;20.88;;;8.95;;
29402;SDS011;16382;59.942;30.472;2022-12-18T14:58:58;21.95;;;9.38;;
29402;SDS011;16382;59.942;30.472;2022-12-18T15:01:31;18.85;;;9.10;;
29402;SDS011;16382;59.942;30.472;2022-12-18T15:04:03;40.90;;;19.05;;
29402;SDS011;16382;59.942;30.472;2022-12-18T15:07:03;22.30;;;9.68;;
29402;SDS011;16382;59.942;30.472;2022-12-18T15:09:37;21.75;;;9.10;;
29402;SDS011;16382;59.942;30.472;2022-12-18T15:12:15;19.80;;;9.43;;
29402;SDS011;16382;59.942;30.472;2022-12-18T15:14:53;19.30;;;8.68;;
29402;SDS011;16382;59.942;30.472;2022-12-18T15:17:21;20.20;;;9.32;;